sensor_id;sensor_type;location;lat;lon;timestamp;pressure;altitude;pressure_sealevel;temperature;humidity
57250;BME280;43102;52.014;-0.680;2023-08-08T00:00:00;100820;;;17.20;57.67
57250;BME280;43102;52.014;-0.680;2023-08-08T00:01:00;100820;;;17.20;57.67
57250;BME280;43102;52.014;-0.680;2023-08-08T00:02:00;100820;;;17.20;57.67
57250;BME280;43102;52.014;-0.680;2023-08-08T00:03:00;100820;;;17.20;57.67
57250;BME280;43102;52.014;-0.680;2023-08-08T00:04:00;100807;;;17.10;57.53
57250;BME280;43102;52.014;-0.680;2023-08-08T00:05:00;100807;;;17.10;57.53
57250;BME280;43102;52.014;-0.680;2023-08-08T00:06:00;100807;;;17.10;57.53
57250;BME280;43102;52.014;-0.680;2023-08-08T00:07:00;100807;;;17.10;57.53
57250;BME280;43102;52.014;-0.680;2023-08-08T00:08:00;100807;;;17.10;57.53
57250;BME280;43102;52.014;-0.680;2023-08-08T00:09:00;100801;;;17.05;57.68
57250;BME280;43102;52.014;-0.680;2023-08-08T00:10:00;100801;;;17.05;57.68
57250;BME280;43102;52.014;-0.680;2023-08-08T00:11:00;100801;;;17.05;57.68
57250;BME280;43102;52.014;-0.680;2023-08-08T00:12:00;100801;;;17.05;57.68
57250;BME280;43102;52.014;-0.680;2023-08-08T00:13:00;100801;;;17.05;57.68
57250;BME280;43102;52.014;-0.680;2023-08-08T00:14:00;100796;;;16.93;58.06
57250;BME280;43102;52.014;-0.680;2023-08-08T00:15:00;100796;;;16.93;58.06
57250;BME280;43102;52.014;-0.680;2023-08-08T00:16:00;100796;;;16.93;58.06
57250;BME280;43102;52.014;-0.680;2023-08-08T00:17:00;100796;;;16.93;58.06
57250;BME280;43102;52.014;-0.680;2023-08-08T00:18:00;100796;;;16.93;58.06
57250;BME280;43102;52.014;-0.680;2023-08-08T00:19:00;100798;;;16.83;58.11
57250;BME280;43102;52.014;-0.680;2023-08-08T00:20:00;100798;;;16.83;58.11
57250;BME280;43102;52.014;-0.680;2023-08-08T00:21:00;100798;;;16.83;58.11
57250;BME280;43102;52.014;-0.680;2023-08-08T00:22:00;100798;;;16.83;58.11
57250;BME280;43102;52.014;-0.680;2023-08-08T00:23:00;100798;;;16.83;58.11
57250;BME280;43102;52.014;-0.680;2023-08-08T00:24:00;100797;;;16.77;58.16
57250;BME280;43102;52.014;-0.680;2023-08-08T00:25:00;100797;;;16.77;58.16
57250;BME280;43102;52.014;-0.680;2023-08-08T00:26:00;100797;;;16.77;58.16
57250;BME280;43102;52.014;-0.680;2023-08-08T00:27:00;100797;;;16.77;58.16
57250;BME280;43102;52.014;-0.680;2023-08-08T00:28:00;100797;;;16.77;58.16
57250;BME280;43102;52.014;-0.680;2023-08-08T00:29:00;100794;;;16.70;58.17
57250;BME280;43102;52.014;-0.680;2023-08-08T00:30:00;100794;;;16.70;58.17
57250;BME280;43102;52.014;-0.680;2023-08-08T00:31:00;100794;;;16.70;58.17
57250;BME280;43102;52.014;-0.680;2023-08-08T00:32:00;100794;;;16.70;58.17
57250;BME280;43102;52.014;-0.680;2023-08-08T00:33:00;100794;;;16.70;58.17
57250;BME280;43102;52.014;-0.680;2023-08-08T00:34:00;100794;;;16.63;58.29
57250;BME280;43102;52.014;-0.680;2023-08-08T00:35:00;100794;;;16.63;58.29
57250;BME280;43102;52.014;-0.680;2023-08-08T00:36:00;100794;;;16.63;58.29
57250;BME280;43102;52.014;-0.680;2023-08-08T00:37:00;100794;;;16.63;58.29
57250;BME280;43102;52.014;-0.680;2023-08-08T00:38:00;100794;;;16.63;58.29
57250;BME280;43102;52.014;-0.680;2023-08-08T00:39:00;100793;;;16.54;58.31
57250;BME280;43102;52.014;-0.680;2023-08-08T00:40:00;100793;;;16.54;58.31
57250;BME280;43102;52.014;-0.680;2023-08-08T00:41:00;100793;;;16.54;58.31
57250;BME280;43102;52.014;-0.680;2023-08-08T00:42:00;100793;;;16.54;58.31
57250;BME280;43102;52.014;-0.680;2023-08-08T00:43:00;100793;;;16.54;58.31
57250;BME280;43102;52.014;-0.680;2023-08-08T00:44:00;100787;;;16.44;58.55
57250;BME280;43102;52.014;-0.680;2023-08-08T00:45:00;100787;;;16.44;58.55
57250;BME280;43102;52.014;-0.680;2023-08-08T00:46:00;100787;;;16.44;58.55
57250;BME280;43102;52.014;-0.680;2023-08-08T00:47:00;100787;;;16.44;58.55
57250;BME280;43102;52.014;-0.680;2023-08-08T00:48:00;100787;;;16.44;58.55
57250;BME280;43102;52.014;-0.680;2023-08-08T00:49:00;100774;;;16.33;58.55
57250;BME280;43102;52.014;-0.680;2023-08-08T00:50:00;100774;;;16.33;58.55
57250;BME280;43102;52.014;-0.680;2023-08-08T00:51:00;100774;;;16.33;58.55
57250;BME280;43102;52.014;-0.680;2023-08-08T00:52:00;100774;;;16.33;58.55
57250;BME280;43102;52.014;-0.680;2023-08-08T00:53:00;100774;;;16.33;58.55
57250;BME280;43102;52.014;-0.680;2023-08-08T00:54:00;100765;;;16.32;58.55
57250;BME280;43102;52.014;-0.680;2023-08-08T00:55:00;100765;;;16.32;58.55
57250;BME280;43102;52.014;-0.680;2023-08-08T00:56:00;100765;;;16.32;58.55
57250;BME280;43102;52.014;-0.680;2023-08-08T00:57:00;100765;;;16.32;58.55
57250;BME280;43102;52.014;-0.680;2023-08-08T00:58:00;100765;;;16.32;58.55
57250;BME280;43102;52.014;-0.680;2023-08-08T00:59:00;100771;;;16.29;58.62
57250;BME280;43102;52.014;-0.680;2023-08-08T01:00:00;100771;;;16.29;58.62
57250;BME280;43102;52.014;-0.680;2023-08-08T01:01:00;100771;;;16.29;58.62
57250;BME280;43102;52.014;-0.680;2023-08-08T01:02:00;100771;;;16.29;58.62
57250;BME280;43102;52.014;-0.680;2023-08-08T01:03:00;100771;;;16.29;58.62
57250;BME280;43102;52.014;-0.680;2023-08-08T01:04:00;100773;;;16.25;58.72
57250;BME280;43102;52.014;-0.680;2023-08-08T01:05:00;100773;;;16.25;58.72
57250;BME280;43102;52.014;-0.680;2023-08-08T01:06:05;100773;;;16.25;58.72
57250;BME280;43102;52.014;-0.680;2023-08-08T01:07:10;100773;;;16.25;58.72
57250;BME280;43102;52.014;-0.680;2023-08-08T01:08:04;100773;;;16.25;58.72
57250;BME280;43102;52.014;-0.680;2023-08-08T01:09:02;100764;;;16.21;58.75
57250;BME280;43102;52.014;-0.680;2023-08-08T01:10:05;100764;;;16.21;58.75
57250;BME280;43102;52.014;-0.680;2023-08-08T01:11:00;100764;;;16.21;58.75
57250;BME280;43102;52.014;-0.680;2023-08-08T01:12:00;100764;;;16.21;58.75
57250;BME280;43102;52.014;-0.680;2023-08-08T01:13:00;100764;;;16.21;58.75
57250;BME280;43102;52.014;-0.680;2023-08-08T01:14:00;100769;;;16.17;58.87
57250;BME280;43102;52.014;-0.680;2023-08-08T01:15:00;100769;;;16.17;58.87
57250;BME280;43102;52.014;-0.680;2023-08-08T01:16:00;100769;;;16.17;58.87
57250;BME280;43102;52.014;-0.680;2023-08-08T01:17:00;100769;;;16.17;58.87
57250;BME280;43102;52.014;-0.680;2023-08-08T01:18:00;100769;;;16.17;58.87
57250;BME280;43102;52.014;-0.680;2023-08-08T01:19:00;100761;;;16.14;58.97
57250;BME280;43102;52.014;-0.680;2023-08-08T01:20:00;100761;;;16.14;58.97
57250;BME280;43102;52.014;-0.680;2023-08-08T01:21:00;100761;;;16.14;58.97
57250;BME280;43102;52.014;-0.680;2023-08-08T01:22:02;100761;;;16.14;58.97
57250;BME280;43102;52.014;-0.680;2023-08-08T01:23:07;100761;;;16.14;58.97
57250;BME280;43102;52.014;-0.680;2023-08-08T01:24:01;100753;;;16.06;58.96
57250;BME280;43102;52.014;-0.680;2023-08-08T01:25:00;100753;;;16.06;58.96
57250;BME280;43102;52.014;-0.680;2023-08-08T01:26:00;100753;;;16.06;58.96
57250;BME280;43102;52.014;-0.680;2023-08-08T01:27:00;100753;;;16.06;58.96
57250;BME280;43102;52.014;-0.680;2023-08-08T01:28:00;100753;;;16.06;58.96
57250;BME280;43102;52.014;-0.680;2023-08-08T01:29:00;100748;;;16.04;58.89
57250;BME280;43102;52.014;-0.680;2023-08-08T01:30:00;100748;;;16.04;58.89
57250;BME280;43102;52.014;-0.680;2023-08-08T01:31:00;100748;;;16.04;58.89
57250;BME280;43102;52.014;-0.680;2023-08-08T01:32:00;100748;;;16.04;58.89
57250;BME280;43102;52.014;-0.680;2023-08-08T01:33:00;100748;;;16.04;58.89
57250;BME280;43102;52.014;-0.680;2023-08-08T01:34:00;100752;;;15.95;58.85
57250;BME280;43102;52.014;-0.680;2023-08-08T01:35:00;100752;;;15.95;58.85
57250;BME280;43102;52.014;-0.680;2023-08-08T01:36:02;100752;;;15.95;58.85
57250;BME280;43102;52.014;-0.680;2023-08-08T01:37:02;100752;;;15.95;58.85
57250;BME280;43102;52.014;-0.680;2023-08-08T01:38:03;100752;;;15.95;58.85
57250;BME280;43102;52.014;-0.680;2023-08-08T01:39:00;100750;;;15.87;58.94
57250;BME280;43102;52.014;-0.680;2023-08-08T01:40:00;100750;;;15.87;58.94
57250;BME280;43102;52.014;-0.680;2023-08-08T01:41:00;100750;;;15.87;58.94
57250;BME280;43102;52.014;-0.680;2023-08-08T01:42:00;100750;;;15.87;58.94
57250;BME280;43102;52.014;-0.680;2023-08-08T01:43:00;100750;;;15.87;58.94
57250;BME280;43102;52.014;-0.680;2023-08-08T01:44:00;100757;;;15.81;59.16
57250;BME280;43102;52.014;-0.680;2023-08-08T01:45:00;100757;;;15.81;59.16
57250;BME280;43102;52.014;-0.680;2023-08-08T01:46:00;100757;;;15.81;59.16
57250;BME280;43102;52.014;-0.680;2023-08-08T01:47:00;100757;;;15.81;59.16
57250;BME280;43102;52.014;-0.680;2023-08-08T01:48:00;100757;;;15.81;59.16
57250;BME280;43102;52.014;-0.680;2023-08-08T01:49:00;100750;;;15.77;59.21
57250;BME280;43102;52.014;-0.680;2023-08-08T01:50:00;100750;;;15.77;59.21
57250;BME280;43102;52.014;-0.680;2023-08-08T01:51:00;100750;;;15.77;59.21
57250;BME280;43102;52.014;-0.680;2023-08-08T01:52:00;100750;;;15.77;59.21
57250;BME280;43102;52.014;-0.680;2023-08-08T01:53:00;100750;;;15.77;59.21
57250;BME280;43102;52.014;-0.680;2023-08-08T01:54:00;100736;;;15.71;59.34
57250;BME280;43102;52.014;-0.680;2023-08-08T01:55:00;100736;;;15.71;59.34
57250;BME280;43102;52.014;-0.680;2023-08-08T01:56:00;100736;;;15.71;59.34
57250;BME280;43102;52.014;-0.680;2023-08-08T01:57:00;100736;;;15.71;59.34
57250;BME280;43102;52.014;-0.680;2023-08-08T01:58:00;100736;;;15.71;59.34
57250;BME280;43102;52.014;-0.680;2023-08-08T01:59:00;100739;;;15.73;59.30
57250;BME280;43102;52.014;-0.680;2023-08-08T02:00:00;100739;;;15.73;59.30
57250;BME280;43102;52.014;-0.680;2023-08-08T02:01:00;100739;;;15.73;59.30
57250;BME280;43102;52.014;-0.680;2023-08-08T02:02:00;100739;;;15.73;59.30
57250;BME280;43102;52.014;-0.680;2023-08-08T02:03:00;100739;;;15.73;59.30
57250;BME280;43102;52.014;-0.680;2023-08-08T02:04:00;100723;;;15.63;59.51
57250;BME280;43102;52.014;-0.680;2023-08-08T02:05:00;100723;;;15.63;59.51
57250;BME280;43102;52.014;-0.680;2023-08-08T02:06:00;100723;;;15.63;59.51
57250;BME280;43102;52.014;-0.680;2023-08-08T02:07:00;100723;;;15.63;59.51
57250;BME280;43102;52.014;-0.680;2023-08-08T02:08:00;100723;;;15.63;59.51
57250;BME280;43102;52.014;-0.680;2023-08-08T02:09:00;100723;;;15.61;59.54
57250;BME280;43102;52.014;-0.680;2023-08-08T02:10:00;100723;;;15.61;59.54
57250;BME280;43102;52.014;-0.680;2023-08-08T02:11:00;100723;;;15.61;59.54
57250;BME280;43102;52.014;-0.680;2023-08-08T02:12:00;100723;;;15.61;59.54
57250;BME280;43102;52.014;-0.680;2023-08-08T02:13:00;100723;;;15.61;59.54
57250;BME280;43102;52.014;-0.680;2023-08-08T02:14:00;100722;;;15.48;59.85
57250;BME280;43102;52.014;-0.680;2023-08-08T02:15:00;100722;;;15.48;59.85
57250;BME280;43102;52.014;-0.680;2023-08-08T02:16:00;100722;;;15.48;59.85
57250;BME280;43102;52.014;-0.680;2023-08-08T02:17:00;100722;;;15.48;59.85
57250;BME280;43102;52.014;-0.680;2023-08-08T02:18:00;100722;;;15.48;59.85
57250;BME280;43102;52.014;-0.680;2023-08-08T02:19:00;100723;;;15.46;59.69
57250;BME280;43102;52.014;-0.680;2023-08-08T02:20:00;100723;;;15.46;59.69
57250;BME280;43102;52.014;-0.680;2023-08-08T02:21:00;100723;;;15.46;59.69
57250;BME280;43102;52.014;-0.680;2023-08-08T02:22:00;100723;;;15.46;59.69
57250;BME280;43102;52.014;-0.680;2023-08-08T02:23:00;100723;;;15.46;59.69
57250;BME280;43102;52.014;-0.680;2023-08-08T02:24:00;100728;;;15.39;59.65
57250;BME280;43102;52.014;-0.680;2023-08-08T02:25:00;100728;;;15.39;59.65
57250;BME280;43102;52.014;-0.680;2023-08-08T02:26:00;100728;;;15.39;59.65
57250;BME280;43102;52.014;-0.680;2023-08-08T02:27:00;100728;;;15.39;59.65
57250;BME280;43102;52.014;-0.680;2023-08-08T02:28:00;100728;;;15.39;59.65
57250;BME280;43102;52.014;-0.680;2023-08-08T02:29:00;100730;;;15.32;59.74
57250;BME280;43102;52.014;-0.680;2023-08-08T02:30:00;100730;;;15.32;59.74
57250;BME280;43102;52.014;-0.680;2023-08-08T02:31:00;100730;;;15.32;59.74
57250;BME280;43102;52.014;-0.680;2023-08-08T02:32:00;100730;;;15.32;59.74
57250;BME280;43102;52.014;-0.680;2023-08-08T02:33:00;100730;;;15.32;59.74
57250;BME280;43102;52.014;-0.680;2023-08-08T02:34:00;100723;;;15.31;59.93
57250;BME280;43102;52.014;-0.680;2023-08-08T02:35:00;100723;;;15.31;59.93
57250;BME280;43102;52.014;-0.680;2023-08-08T02:36:00;100723;;;15.31;59.93
57250;BME280;43102;52.014;-0.680;2023-08-08T02:37:00;100723;;;15.31;59.93
57250;BME280;43102;52.014;-0.680;2023-08-08T02:38:00;100723;;;15.31;59.93
57250;BME280;43102;52.014;-0.680;2023-08-08T02:39:00;100721;;;15.24;60.08
57250;BME280;43102;52.014;-0.680;2023-08-08T02:40:00;100721;;;15.24;60.08
57250;BME280;43102;52.014;-0.680;2023-08-08T02:41:00;100721;;;15.24;60.08
57250;BME280;43102;52.014;-0.680;2023-08-08T02:42:00;100721;;;15.24;60.08
57250;BME280;43102;52.014;-0.680;2023-08-08T02:43:00;100721;;;15.24;60.08
57250;BME280;43102;52.014;-0.680;2023-08-08T02:44:00;100722;;;15.19;60.70
57250;BME280;43102;52.014;-0.680;2023-08-08T02:45:00;100722;;;15.19;60.70
57250;BME280;43102;52.014;-0.680;2023-08-08T02:46:00;100722;;;15.19;60.70
57250;BME280;43102;52.014;-0.680;2023-08-08T02:47:00;100722;;;15.19;60.70
57250;BME280;43102;52.014;-0.680;2023-08-08T02:48:00;100722;;;15.19;60.70
57250;BME280;43102;52.014;-0.680;2023-08-08T02:49:00;100715;;;15.11;60.44
57250;BME280;43102;52.014;-0.680;2023-08-08T02:50:00;100715;;;15.11;60.44
57250;BME280;43102;52.014;-0.680;2023-08-08T02:51:00;100715;;;15.11;60.44
57250;BME280;43102;52.014;-0.680;2023-08-08T02:52:00;100715;;;15.11;60.44
57250;BME280;43102;52.014;-0.680;2023-08-08T02:53:00;100715;;;15.11;60.44
57250;BME280;43102;52.014;-0.680;2023-08-08T02:54:00;100710;;;15.02;60.58
57250;BME280;43102;52.014;-0.680;2023-08-08T02:55:00;100710;;;15.02;60.58
57250;BME280;43102;52.014;-0.680;2023-08-08T02:56:00;100710;;;15.02;60.58
57250;BME280;43102;52.014;-0.680;2023-08-08T02:57:00;100710;;;15.02;60.58
57250;BME280;43102;52.014;-0.680;2023-08-08T02:58:00;100710;;;15.02;60.58
57250;BME280;43102;52.014;-0.680;2023-08-08T02:59:00;100719;;;14.94;60.90
57250;BME280;43102;52.014;-0.680;2023-08-08T03:00:00;100719;;;14.94;60.90
57250;BME280;43102;52.014;-0.680;2023-08-08T03:01:00;100719;;;14.94;60.90
57250;BME280;43102;52.014;-0.680;2023-08-08T03:02:00;100719;;;14.94;60.90
57250;BME280;43102;52.014;-0.680;2023-08-08T03:03:00;100719;;;14.94;60.90
57250;BME280;43102;52.014;-0.680;2023-08-08T03:04:00;100722;;;14.92;61.17
57250;BME280;43102;52.014;-0.680;2023-08-08T03:05:00;100722;;;14.92;61.17
57250;BME280;43102;52.014;-0.680;2023-08-08T03:06:00;100722;;;14.92;61.17
57250;BME280;43102;52.014;-0.680;2023-08-08T03:07:00;100722;;;14.92;61.17
57250;BME280;43102;52.014;-0.680;2023-08-08T03:08:00;100722;;;14.92;61.17
57250;BME280;43102;52.014;-0.680;2023-08-08T03:09:00;100723;;;14.91;61.40
57250;BME280;43102;52.014;-0.680;2023-08-08T03:10:00;100723;;;14.91;61.40
57250;BME280;43102;52.014;-0.680;2023-08-08T03:11:00;100723;;;14.91;61.40
57250;BME280;43102;52.014;-0.680;2023-08-08T03:12:00;100723;;;14.91;61.40
57250;BME280;43102;52.014;-0.680;2023-08-08T03:13:00;100723;;;14.91;61.40
57250;BME280;43102;52.014;-0.680;2023-08-08T03:14:00;100717;;;14.86;62.36
57250;BME280;43102;52.014;-0.680;2023-08-08T03:15:00;100717;;;14.86;62.36
57250;BME280;43102;52.014;-0.680;2023-08-08T03:16:00;100717;;;14.86;62.36
57250;BME280;43102;52.014;-0.680;2023-08-08T03:17:00;100717;;;14.86;62.36
57250;BME280;43102;52.014;-0.680;2023-08-08T03:18:00;100717;;;14.86;62.36
57250;BME280;43102;52.014;-0.680;2023-08-08T03:19:00;100722;;;14.85;62.21
57250;BME280;43102;52.014;-0.680;2023-08-08T03:20:00;100722;;;14.85;62.21
57250;BME280;43102;52.014;-0.680;2023-08-08T03:21:00;100722;;;14.85;62.21
57250;BME280;43102;52.014;-0.680;2023-08-08T03:22:00;100722;;;14.85;62.21
57250;BME280;43102;52.014;-0.680;2023-08-08T03:23:00;100722;;;14.85;62.21
57250;BME280;43102;52.014;-0.680;2023-08-08T03:24:00;100714;;;14.85;62.33
57250;BME280;43102;52.014;-0.680;2023-08-08T03:25:00;100714;;;14.85;62.33
57250;BME280;43102;52.014;-0.680;2023-08-08T03:26:00;100714;;;14.85;62.33
57250;BME280;43102;52.014;-0.680;2023-08-08T03:27:00;100714;;;14.85;62.33
57250;BME280;43102;52.014;-0.680;2023-08-08T03:28:00;100714;;;14.85;62.33
57250;BME280;43102;52.014;-0.680;2023-08-08T03:29:00;100715;;;14.81;62.27
57250;BME280;43102;52.014;-0.680;2023-08-08T03:30:00;100715;;;14.81;62.27
57250;BME280;43102;52.014;-0.680;2023-08-08T03:31:00;100715;;;14.81;62.27
57250;BME280;43102;52.014;-0.680;2023-08-08T03:32:00;100715;;;14.81;62.27
57250;BME280;43102;52.014;-0.680;2023-08-08T03:33:00;100715;;;14.81;62.27
57250;BME280;43102;52.014;-0.680;2023-08-08T03:34:00;100715;;;14.83;62.55
57250;BME280;43102;52.014;-0.680;2023-08-08T03:35:00;100715;;;14.83;62.55
57250;BME280;43102;52.014;-0.680;2023-08-08T03:36:00;100715;;;14.83;62.55
57250;BME280;43102;52.014;-0.680;2023-08-08T03:37:00;100715;;;14.83;62.55
57250;BME280;43102;52.014;-0.680;2023-08-08T03:38:00;100715;;;14.83;62.55
57250;BME280;43102;52.014;-0.680;2023-08-08T03:39:00;100721;;;14.81;62.35
57250;BME280;43102;52.014;-0.680;2023-08-08T03:40:00;100721;;;14.81;62.35
57250;BME280;43102;52.014;-0.680;2023-08-08T03:41:00;100721;;;14.81;62.35
57250;BME280;43102;52.014;-0.680;2023-08-08T03:42:00;100721;;;14.81;62.35
57250;BME280;43102;52.014;-0.680;2023-08-08T03:43:00;100721;;;14.81;62.35
57250;BME280;43102;52.014;-0.680;2023-08-08T03:44:00;100720;;;14.80;63.44
57250;BME280;43102;52.014;-0.680;2023-08-08T03:45:00;100720;;;14.80;63.44
57250;BME280;43102;52.014;-0.680;2023-08-08T03:46:00;100720;;;14.80;63.44
57250;BME280;43102;52.014;-0.680;2023-08-08T03:47:00;100720;;;14.80;63.44
57250;BME280;43102;52.014;-0.680;2023-08-08T03:48:00;100720;;;14.80;63.44
57250;BME280;43102;52.014;-0.680;2023-08-08T03:49:00;100725;;;14.81;63.33
57250;BME280;43102;52.014;-0.680;2023-08-08T03:50:00;100725;;;14.81;63.33
57250;BME280;43102;52.014;-0.680;2023-08-08T03:51:00;100725;;;14.81;63.33
57250;BME280;43102;52.014;-0.680;2023-08-08T03:52:00;100725;;;14.81;63.33
57250;BME280;43102;52.014;-0.680;2023-08-08T03:53:00;100725;;;14.81;63.33
57250;BME280;43102;52.014;-0.680;2023-08-08T03:54:00;100719;;;14.77;63.12
57250;BME280;43102;52.014;-0.680;2023-08-08T03:55:00;100719;;;14.77;63.12
57250;BME280;43102;52.014;-0.680;2023-08-08T03:56:00;100719;;;14.77;63.12
57250;BME280;43102;52.014;-0.680;2023-08-08T03:57:00;100719;;;14.77;63.12
57250;BME280;43102;52.014;-0.680;2023-08-08T03:58:00;100719;;;14.77;63.12
57250;BME280;43102;52.014;-0.680;2023-08-08T03:59:00;100718;;;14.80;63.44
57250;BME280;43102;52.014;-0.680;2023-08-08T04:00:00;100718;;;14.80;63.44
57250;BME280;43102;52.014;-0.680;2023-08-08T04:01:00;100718;;;14.80;63.44
57250;BME280;43102;52.014;-0.680;2023-08-08T04:02:00;100718;;;14.80;63.44
57250;BME280;43102;52.014;-0.680;2023-08-08T04:03:00;100718;;;14.80;63.44
57250;BME280;43102;52.014;-0.680;2023-08-08T04:04:00;100718;;;14.82;63.61
57250;BME280;43102;52.014;-0.680;2023-08-08T04:05:00;100718;;;14.82;63.61
57250;BME280;43102;52.014;-0.680;2023-08-08T04:06:00;100718;;;14.82;63.61
57250;BME280;43102;52.014;-0.680;2023-08-08T04:07:00;100718;;;14.82;63.61
57250;BME280;43102;52.014;-0.680;2023-08-08T04:08:00;100718;;;14.82;63.61
57250;BME280;43102;52.014;-0.680;2023-08-08T04:09:00;100718;;;14.87;63.35
57250;BME280;43102;52.014;-0.680;2023-08-08T04:10:00;100718;;;14.87;63.35
57250;BME280;43102;52.014;-0.680;2023-08-08T04:11:00;100718;;;14.87;63.35
57250;BME280;43102;52.014;-0.680;2023-08-08T04:12:00;100718;;;14.87;63.35
57250;BME280;43102;52.014;-0.680;2023-08-08T04:13:00;100718;;;14.87;63.35
57250;BME280;43102;52.014;-0.680;2023-08-08T04:14:00;100722;;;14.83;64.23
57250;BME280;43102;52.014;-0.680;2023-08-08T04:15:00;100722;;;14.83;64.23
57250;BME280;43102;52.014;-0.680;2023-08-08T04:16:00;100722;;;14.83;64.23
57250;BME280;43102;52.014;-0.680;2023-08-08T04:17:00;100722;;;14.83;64.23
57250;BME280;43102;52.014;-0.680;2023-08-08T04:18:00;100722;;;14.83;64.23
57250;BME280;43102;52.014;-0.680;2023-08-08T04:19:00;100718;;;14.85;64.07
57250;BME280;43102;52.014;-0.680;2023-08-08T04:20:00;100718;;;14.85;64.07
57250;BME280;43102;52.014;-0.680;2023-08-08T04:21:00;100718;;;14.85;64.07
57250;BME280;43102;52.014;-0.680;2023-08-08T04:22:00;100718;;;14.85;64.07
57250;BME280;43102;52.014;-0.680;2023-08-08T04:23:00;100718;;;14.85;64.07
57250;BME280;43102;52.014;-0.680;2023-08-08T04:24:01;100711;;;14.88;64.04
57250;BME280;43102;52.014;-0.680;2023-08-08T04:25:00;100711;;;14.88;64.04
57250;BME280;43102;52.014;-0.680;2023-08-08T04:26:00;100711;;;14.88;64.04
57250;BME280;43102;52.014;-0.680;2023-08-08T04:27:00;100711;;;14.88;64.04
57250;BME280;43102;52.014;-0.680;2023-08-08T04:28:00;100711;;;14.88;64.04
57250;BME280;43102;52.014;-0.680;2023-08-08T04:29:00;100698;;;14.92;64.06
57250;BME280;43102;52.014;-0.680;2023-08-08T04:30:00;100698;;;14.92;64.06
57250;BME280;43102;52.014;-0.680;2023-08-08T04:31:00;100698;;;14.92;64.06
57250;BME280;43102;52.014;-0.680;2023-08-08T04:32:00;100698;;;14.92;64.06
57250;BME280;43102;52.014;-0.680;2023-08-08T04:33:00;100698;;;14.92;64.06
57250;BME280;43102;52.014;-0.680;2023-08-08T04:34:00;100702;;;14.96;63.77
57250;BME280;43102;52.014;-0.680;2023-08-08T04:35:00;100702;;;14.96;63.77
57250;BME280;43102;52.014;-0.680;2023-08-08T04:36:00;100702;;;14.96;63.77
57250;BME280;43102;52.014;-0.680;2023-08-08T04:37:00;100702;;;14.96;63.77
57250;BME280;43102;52.014;-0.680;2023-08-08T04:38:00;100702;;;14.96;63.77
57250;BME280;43102;52.014;-0.680;2023-08-08T04:39:00;100706;;;14.93;63.66
57250;BME280;43102;52.014;-0.680;2023-08-08T04:40:00;100706;;;14.93;63.66
57250;BME280;43102;52.014;-0.680;2023-08-08T04:41:00;100706;;;14.93;63.66
57250;BME280;43102;52.014;-0.680;2023-08-08T04:42:00;100706;;;14.93;63.66
57250;BME280;43102;52.014;-0.680;2023-08-08T04:43:00;100706;;;14.93;63.66
57250;BME280;43102;52.014;-0.680;2023-08-08T04:44:00;100704;;;14.91;64.77
57250;BME280;43102;52.014;-0.680;2023-08-08T04:45:00;100704;;;14.91;64.77
57250;BME280;43102;52.014;-0.680;2023-08-08T04:46:00;100704;;;14.91;64.77
57250;BME280;43102;52.014;-0.680;2023-08-08T04:47:00;100704;;;14.91;64.77
57250;BME280;43102;52.014;-0.680;2023-08-08T04:48:00;100704;;;14.91;64.77
57250;BME280;43102;52.014;-0.680;2023-08-08T04:49:00;100694;;;14.87;64.30
57250;BME280;43102;52.014;-0.680;2023-08-08T04:50:00;100694;;;14.87;64.30
57250;BME280;43102;52.014;-0.680;2023-08-08T04:51:00;100694;;;14.87;64.30
57250;BME280;43102;52.014;-0.680;2023-08-08T04:52:00;100694;;;14.87;64.30
57250;BME280;43102;52.014;-0.680;2023-08-08T04:53:00;100694;;;14.87;64.30
57250;BME280;43102;52.014;-0.680;2023-08-08T04:54:00;100697;;;14.88;64.13
57250;BME280;43102;52.014;-0.680;2023-08-08T04:55:00;100697;;;14.88;64.13
57250;BME280;43102;52.014;-0.680;2023-08-08T04:56:00;100697;;;14.88;64.13
57250;BME280;43102;52.014;-0.680;2023-08-08T04:57:00;100697;;;14.88;64.13
57250;BME280;43102;52.014;-0.680;2023-08-08T04:58:00;100697;;;14.88;64.13
57250;BME280;43102;52.014;-0.680;2023-08-08T04:59:00;100699;;;14.89;64.09
57250;BME280;43102;52.014;-0.680;2023-08-08T05:00:00;100699;;;14.89;64.09
57250;BME280;43102;52.014;-0.680;2023-08-08T05:01:00;100699;;;14.89;64.09
57250;BME280;43102;52.014;-0.680;2023-08-08T05:02:00;100699;;;14.89;64.09
57250;BME280;43102;52.014;-0.680;2023-08-08T05:03:00;100699;;;14.89;64.09
57250;BME280;43102;52.014;-0.680;2023-08-08T05:04:00;100702;;;14.91;64.08
57250;BME280;43102;52.014;-0.680;2023-08-08T05:05:00;100702;;;14.91;64.08
57250;BME280;43102;52.014;-0.680;2023-08-08T05:06:00;100702;;;14.91;64.08
57250;BME280;43102;52.014;-0.680;2023-08-08T05:07:00;100702;;;14.91;64.08
57250;BME280;43102;52.014;-0.680;2023-08-08T05:08:00;100702;;;14.91;64.08
57250;BME280;43102;52.014;-0.680;2023-08-08T05:09:00;100698;;;14.93;64.02
57250;BME280;43102;52.014;-0.680;2023-08-08T05:10:00;100698;;;14.93;64.02
57250;BME280;43102;52.014;-0.680;2023-08-08T05:11:00;100698;;;14.93;64.02
57250;BME280;43102;52.014;-0.680;2023-08-08T05:12:00;100698;;;14.93;64.02
57250;BME280;43102;52.014;-0.680;2023-08-08T05:13:00;100698;;;14.93;64.02
57250;BME280;43102;52.014;-0.680;2023-08-08T05:14:00;100697;;;14.93;64.66
57250;BME280;43102;52.014;-0.680;2023-08-08T05:15:00;100697;;;14.93;64.66
57250;BME280;43102;52.014;-0.680;2023-08-08T05:16:00;100697;;;14.93;64.66
57250;BME280;43102;52.014;-0.680;2023-08-08T05:17:01;100697;;;14.93;64.66
57250;BME280;43102;52.014;-0.680;2023-08-08T05:18:00;100697;;;14.93;64.66
57250;BME280;43102;52.014;-0.680;2023-08-08T05:19:00;100683;;;14.95;64.09
57250;BME280;43102;52.014;-0.680;2023-08-08T05:20:00;100683;;;14.95;64.09
57250;BME280;43102;52.014;-0.680;2023-08-08T05:21:00;100683;;;14.95;64.09